sensor_id;sensor_type;location;lat;lon;timestamp;temperature;humidity
13976;DHT22;7062;49.792;9.946;2022-12-24T00:02:21;12.10;99.90
13976;DHT22;7062;49.792;9.946;2022-12-24T00:04:47;12.10;99.90
13976;DHT22;7062;49.792;9.946;2022-12-24T00:07:13;12.10;99.90
13976;DHT22;7062;49.792;9.946;2022-12-24T00:09:38;12.20;99.90
13976;DHT22;7062;49.792;9.946;2022-12-24T00:12:04;12.10;99.90
13976;DHT22;7062;49.792;9.946;2022-12-24T00:14:30;12.10;99.90
13976;DHT22;7062;49.792;9.946;2022-12-24T00:16:55;12.10;99.90
13976;DHT22;7062;49.792;9.946;2022-12-24T00:19:21;12.10;99.90
13976;DHT22;7062;49.792;9.946;2022-12-24T00:21:47;12.00;99.90
13976;DHT22;7062;49.792;9.946;2022-12-24T00:24:12;12.00;99.90
13976;DHT22;7062;49.792;9.946;2022-12-24T00:26:38;11.90;99.90
13976;DHT22;7062;49.792;9.946;2022-12-24T00:29:04;11.80;99.90
13976;DHT22;7062;49.792;9.946;2022-12-24T00:31:31;11.80;99.90
13976;DHT22;7062;49.792;9.946;2022-12-24T00:33:56;11.80;99.90
13976;DHT22;7062;49.792;9.946;2022-12-24T00:36:22;11.80;99.90
13976;DHT22;7062;49.792;9.946;2022-12-24T00:38:47;11.70;99.90
13976;DHT22;7062;49.792;9.946;2022-12-24T00:41:14;11.70;99.90
13976;DHT22;7062;49.792;9.946;2022-12-24T00:44:00;11.80;99.90
13976;DHT22;7062;49.792;9.946;2022-12-24T00:46:27;11.80;99.90
13976;DHT22;7062;49.792;9.946;2022-12-24T00:48:53;11.80;99.90
13976;DHT22;7062;49.792;9.946;2022-12-24T00:51:20;11.80;99.90
13976;DHT22;7062;49.792;9.946;2022-12-24T00:53:46;11.80;99.90
13976;DHT22;7062;49.792;9.946;2022-12-24T00:56:12;11.80;99.90
13976;DHT22;7062;49.792;9.946;2022-12-24T00:58:37;11.70;99.90
13976;DHT22;7062;49.792;9.946;2022-12-24T01:01:04;11.70;99.90
13976;DHT22;7062;49.792;9.946;2022-12-24T01:03:30;11.60;99.90
13976;DHT22;7062;49.792;9.946;2022-12-24T01:06:09;11.70;99.90
13976;DHT22;7062;49.792;9.946;2022-12-24T01:08:35;11.60;99.90
13976;DHT22;7062;49.792;9.946;2022-12-24T01:11:02;11.70;99.90
13976;DHT22;7062;49.792;9.946;2022-12-24T01:13:28;11.60;99.90
13976;DHT22;7062;49.792;9.946;2022-12-24T01:15:54;11.60;99.90
13976;DHT22;7062;49.792;9.946;2022-12-24T01:18:20;11.60;99.90
13976;DHT22;7062;49.792;9.946;2022-12-24T01:21:01;11.50;99.90
13976;DHT22;7062;49.792;9.946;2022-12-24T01:23:28;11.60;99.90
13976;DHT22;7062;49.792;9.946;2022-12-24T01:25:54;11.60;99.90
13976;DHT22;7062;49.792;9.946;2022-12-24T01:28:20;11.60;99.90
13976;DHT22;7062;49.792;9.946;2022-12-24T01:30:47;11.50;99.90
13976;DHT22;7062;49.792;9.946;2022-12-24T01:33:13;11.50;99.90
13976;DHT22;7062;49.792;9.946;2022-12-24T01:35:40;11.40;99.90
13976;DHT22;7062;49.792;9.946;2022-12-24T01:38:06;11.50;99.90
13976;DHT22;7062;49.792;9.946;2022-12-24T01:40:31;11.40;99.90
13976;DHT22;7062;49.792;9.946;2022-12-24T01:43:20;11.40;99.90
13976;DHT22;7062;49.792;9.946;2022-12-24T01:45:52;11.40;99.90
13976;DHT22;7062;49.792;9.946;2022-12-24T01:48:38;11.40;99.90
13976;DHT22;7062;49.792;9.946;2022-12-24T01:53:45;11.40;99.90
13976;DHT22;7062;49.792;9.946;2022-12-24T01:56:13;11.40;99.90
13976;DHT22;7062;49.792;9.946;2022-12-24T01:58:42;11.40;99.90
13976;DHT22;7062;49.792;9.946;2022-12-24T02:01:09;11.40;99.90
13976;DHT22;7062;49.792;9.946;2022-12-24T02:03:35;11.40;99.90
13976;DHT22;7062;49.792;9.946;2022-12-24T02:06:01;11.40;99.90
13976;DHT22;7062;49.792;9.946;2022-12-24T02:08:27;11.50;99.90
13976;DHT22;7062;49.792;9.946;2022-12-24T02:11:11;11.50;99.90
13976;DHT22;7062;49.792;9.946;2022-12-24T02:13:37;11.50;99.90
13976;DHT22;7062;49.792;9.946;2022-12-24T02:29:58;11.30;99.90
13976;DHT22;7062;49.792;9.946;2022-12-24T02:32:33;11.30;99.90
13976;DHT22;7062;49.792;9.946;2022-12-24T02:35:33;11.30;99.90
13976;DHT22;7062;49.792;9.946;2022-12-24T02:40:35;11.30;99.90
13976;DHT22;7062;49.792;9.946;2022-12-24T02:43:12;11.30;99.90
13976;DHT22;7062;49.792;9.946;2022-12-24T02:45:41;11.20;99.90
13976;DHT22;7062;49.792;9.946;2022-12-24T02:48:11;11.20;99.90
13976;DHT22;7062;49.792;9.946;2022-12-24T02:50:38;11.30;99.90
13976;DHT22;7062;49.792;9.946;2022-12-24T02:53:05;11.30;99.90
13976;DHT22;7062;49.792;9.946;2022-12-24T02:55:53;11.30;99.90
13976;DHT22;7062;49.792;9.946;2022-12-24T03:07:03;11.40;99.90
13976;DHT22;7062;49.792;9.946;2022-12-24T03:10:36;11.30;99.90
13976;DHT22;7062;49.792;9.946;2022-12-24T03:12:35;11.30;99.90
13976;DHT22;7062;49.792;9.946;2022-12-24T03:15:04;11.30;99.90
13976;DHT22;7062;49.792;9.946;2022-12-24T03:17:34;11.20;99.90
13976;DHT22;7062;49.792;9.946;2022-12-24T03:20:00;11.20;99.90
13976;DHT22;7062;49.792;9.946;2022-12-24T03:22:26;11.20;99.90
13976;DHT22;7062;49.792;9.946;2022-12-24T03:24:52;11.20;99.90
13976;DHT22;7062;49.792;9.946;2022-12-24T03:27:18;11.10;99.90
13976;DHT22;7062;49.792;9.946;2022-12-24T03:29:45;11.10;99.90
13976;DHT22;7062;49.792;9.946;2022-12-24T03:32:11;11.10;99.90
13976;DHT22;7062;49.792;9.946;2022-12-24T03:34:36;11.10;99.90
13976;DHT22;7062;49.792;9.946;2022-12-24T03:37:03;11.10;99.90
13976;DHT22;7062;49.792;9.946;2022-12-24T03:39:28;11.10;99.90
13976;DHT22;7062;49.792;9.946;2022-12-24T03:41:54;11.10;99.90
13976;DHT22;7062;49.792;9.946;2022-12-24T03:44:19;11.10;99.90
13976;DHT22;7062;49.792;9.946;2022-12-24T03:46:45;11.10;99.90
13976;DHT22;7062;49.792;9.946;2022-12-24T03:49:10;11.10;99.90
13976;DHT22;7062;49.792;9.946;2022-12-24T03:51:36;11.10;99.90
13976;DHT22;7062;49.792;9.946;2022-12-24T03:54:02;11.10;99.90
13976;DHT22;7062;49.792;9.946;2022-12-24T03:56:27;11.10;99.90
13976;DHT22;7062;49.792;9.946;2022-12-24T03:58:53;11.10;99.90
13976;DHT22;7062;49.792;9.946;2022-12-24T04:01:19;11.20;99.90
13976;DHT22;7062;49.792;9.946;2022-12-24T04:03:44;11.20;99.90
13976;DHT22;7062;49.792;9.946;2022-12-24T04:06:13;11.20;99.90
13976;DHT22;7062;49.792;9.946;2022-12-24T04:08:39;11.20;99.90
13976;DHT22;7062;49.792;9.946;2022-12-24T04:11:07;11.20;99.90
13976;DHT22;7062;49.792;9.946;2022-12-24T04:13:32;11.20;99.90
13976;DHT22;7062;49.792;9.946;2022-12-24T04:16:07;11.20;99.90
13976;DHT22;7062;49.792;9.946;2022-12-24T04:18:33;11.20;99.90
13976;DHT22;7062;49.792;9.946;2022-12-24T04:20:59;11.20;99.90
13976;DHT22;7062;49.792;9.946;2022-12-24T04:23:25;11.20;99.90
13976;DHT22;7062;49.792;9.946;2022-12-24T04:25:50;11.20;99.90
13976;DHT22;7062;49.792;9.946;2022-12-24T04:28:16;11.20;99.90
13976;DHT22;7062;49.792;9.946;2022-12-24T04:30:42;11.20;99.90
13976;DHT22;7062;49.792;9.946;2022-12-24T04:33:08;11.20;99.90
13976;DHT22;7062;49.792;9.946;2022-12-24T04:35:38;11.20;99.90
13976;DHT22;7062;49.792;9.946;2022-12-24T04:38:04;11.20;99.90
13976;DHT22;7062;49.792;9.946;2022-12-24T04:40:30;11.20;99.90
13976;DHT22;7062;49.792;9.946;2022-12-24T04:42:55;11.20;99.90
13976;DHT22;7062;49.792;9.946;2022-12-24T04:45:21;11.20;99.90
13976;DHT22;7062;49.792;9.946;2022-12-24T04:47:47;11.20;99.90
13976;DHT22;7062;49.792;9.946;2022-12-24T04:50:12;11.20;99.90
13976;DHT22;7062;49.792;9.946;2022-12-24T04:52:38;11.20;99.90
13976;DHT22;7062;49.792;9.946;2022-12-24T04:55:03;11.20;99.90
13976;DHT22;7062;49.792;9.946;2022-12-24T04:57:33;11.20;99.90
13976;DHT22;7062;49.792;9.946;2022-12-24T05:00:00;11.20;99.90
13976;DHT22;7062;49.792;9.946;2022-12-24T05:02:26;11.20;99.90
13976;DHT22;7062;49.792;9.946;2022-12-24T05:04:52;11.20;99.90
13976;DHT22;7062;49.792;9.946;2022-12-24T05:07:17;11.20;99.90
13976;DHT22;7062;49.792;9.946;2022-12-24T05:09:43;11.20;99.90
13976;DHT22;7062;49.792;9.946;2022-12-24T05:12:09;11.20;99.90
13976;DHT22;7062;49.792;9.946;2022-12-24T05:14:34;11.20;99.90
13976;DHT22;7062;49.792;9.946;2022-12-24T05:17:00;11.10;99.90
13976;DHT22;7062;49.792;9.946;2022-12-24T05:19:25;11.20;99.90
13976;DHT22;7062;49.792;9.946;2022-12-24T05:21:51;11.20;99.90
13976;DHT22;7062;49.792;9.946;2022-12-24T05:24:35;11.20;99.90
13976;DHT22;7062;49.792;9.946;2022-12-24T05:27:20;11.20;99.90
13976;DHT22;7062;49.792;9.946;2022-12-24T05:29:45;11.20;99.90
13976;DHT22;7062;49.792;9.946;2022-12-24T05:32:11;11.20;99.90
13976;DHT22;7062;49.792;9.946;2022-12-24T05:34:37;11.20;99.90
13976;DHT22;7062;49.792;9.946;2022-12-24T05:37:03;11.20;99.90
13976;DHT22;7062;49.792;9.946;2022-12-24T05:39:28;11.20;99.90
13976;DHT22;7062;49.792;9.946;2022-12-24T05:41:54;11.20;99.90
13976;DHT22;7062;49.792;9.946;2022-12-24T05:44:19;11.20;99.90
13976;DHT22;7062;49.792;9.946;2022-12-24T05:46:45;11.20;99.90
13976;DHT22;7062;49.792;9.946;2022-12-24T05:49:11;11.20;99.90
13976;DHT22;7062;49.792;9.946;2022-12-24T05:51:37;11.20;99.90
13976;DHT22;7062;49.792;9.946;2022-12-24T05:54:05;11.20;99.90
13976;DHT22;7062;49.792;9.946;2022-12-24T05:56:31;11.20;99.90
13976;DHT22;7062;49.792;9.946;2022-12-24T05:58:57;11.20;99.90
13976;DHT22;7062;49.792;9.946;2022-12-24T06:01:23;11.20;99.90
13976;DHT22;7062;49.792;9.946;2022-12-24T06:03:50;11.20;99.90
13976;DHT22;7062;49.792;9.946;2022-12-24T06:06:18;11.20;99.90
13976;DHT22;7062;49.792;9.946;2022-12-24T06:08:46;11.20;99.90
13976;DHT22;7062;49.792;9.946;2022-12-24T06:11:13;11.20;99.90
13976;DHT22;7062;49.792;9.946;2022-12-24T06:13:40;11.20;99.90
13976;DHT22;7062;49.792;9.946;2022-12-24T06:16:09;11.20;99.90
13976;DHT22;7062;49.792;9.946;2022-12-24T06:18:36;11.20;99.90
13976;DHT22;7062;49.792;9.946;2022-12-24T06:21:03;11.20;99.90
13976;DHT22;7062;49.792;9.946;2022-12-24T06:23:31;11.20;99.90
13976;DHT22;7062;49.792;9.946;2022-12-24T06:25:59;11.20;99.90
13976;DHT22;7062;49.792;9.946;2022-12-24T06:28:32;11.20;99.90
13976;DHT22;7062;49.792;9.946;2022-12-24T06:30:58;11.20;99.90
13976;DHT22;7062;49.792;9.946;2022-12-24T06:33:25;11.20;99.90
13976;DHT22;7062;49.792;9.946;2022-12-24T06:35:51;11.20;99.90
13976;DHT22;7062;49.792;9.946;2022-12-24T06:38:16;11.30;99.90
13976;DHT22;7062;49.792;9.946;2022-12-24T06:40:43;11.20;99.90
13976;DHT22;7062;49.792;9.946;2022-12-24T06:43:10;11.20;99.90
13976;DHT22;7062;49.792;9.946;2022-12-24T06:45:36;11.10;99.90
13976;DHT22;7062;49.792;9.946;2022-12-24T06:48:02;11.10;99.90
13976;DHT22;7062;49.792;9.946;2022-12-24T06:50:28;11.00;99.90
13976;DHT22;7062;49.792;9.946;2022-12-24T06:52:53;11.00;99.90
13976;DHT22;7062;49.792;9.946;2022-12-24T06:55:19;11.00;99.90
13976;DHT22;7062;49.792;9.946;2022-12-24T06:57:44;11.00;99.90
13976;DHT22;7062;49.792;9.946;2022-12-24T07:00:11;11.00;99.90
13976;DHT22;7062;49.792;9.946;2022-12-24T07:02:42;11.00;99.90
13976;DHT22;7062;49.792;9.946;2022-12-24T07:05:10;11.00;99.90
13976;DHT22;7062;49.792;9.946;2022-12-24T07:07:37;10.90;99.90
13976;DHT22;7062;49.792;9.946;2022-12-24T07:10:04;10.90;99.90
13976;DHT22;7062;49.792;9.946;2022-12-24T07:12:30;10.80;99.90
13976;DHT22;7062;49.792;9.946;2022-12-24T07:14:56;10.70;99.90
13976;DHT22;7062;49.792;9.946;2022-12-24T07:17:21;10.70;99.90
13976;DHT22;7062;49.792;9.946;2022-12-24T07:19:47;10.60;99.90
13976;DHT22;7062;49.792;9.946;2022-12-24T07:22:13;10.60;99.90
13976;DHT22;7062;49.792;9.946;2022-12-24T07:24:38;10.60;99.90
13976;DHT22;7062;49.792;9.946;2022-12-24T07:27:04;10.50;99.90
13976;DHT22;7062;49.792;9.946;2022-12-24T07:29:30;10.50;99.90
13976;DHT22;7062;49.792;9.946;2022-12-24T07:31:55;10.50;99.90
13976;DHT22;7062;49.792;9.946;2022-12-24T07:34:21;10.50;99.90
13976;DHT22;7062;49.792;9.946;2022-12-24T07:36:47;10.40;99.90
13976;DHT22;7062;49.792;9.946;2022-12-24T07:39:12;10.40;99.90
13976;DHT22;7062;49.792;9.946;2022-12-24T07:41:38;10.50;99.90
13976;DHT22;7062;49.792;9.946;2022-12-24T07:44:04;10.40;99.90
13976;DHT22;7062;49.792;9.946;2022-12-24T07:46:29;10.40;99.90
13976;DHT22;7062;49.792;9.946;2022-12-24T07:48:55;10.40;99.90
13976;DHT22;7062;49.792;9.946;2022-12-24T07:51:20;10.40;99.90
13976;DHT22;7062;49.792;9.946;2022-12-24T07:53:46;10.40;99.90
13976;DHT22;7062;49.792;9.946;2022-12-24T07:56:15;10.50;99.90
13976;DHT22;7062;49.792;9.946;2022-12-24T07:58:42;10.60;99.90
13976;DHT22;7062;49.792;9.946;2022-12-24T08:01:08;10.60;99.90
13976;DHT22;7062;49.792;9.946;2022-12-24T08:03:34;10.70;99.90
13976;DHT22;7062;49.792;9.946;2022-12-24T08:05:59;10.60;99.90
13976;DHT22;7062;49.792;9.946;2022-12-24T08:08:25;10.60;99.90
13976;DHT22;7062;49.792;9.946;2022-12-24T08:10:51;10.60;99.90
13976;DHT22;7062;49.792;9.946;2022-12-24T08:13:17;10.60;99.90
13976;DHT22;7062;49.792;9.946;2022-12-24T08:15:43;10.70;99.90
13976;DHT22;7062;49.792;9.946;2022-12-24T08:18:10;10.70;99.90
13976;DHT22;7062;49.792;9.946;2022-12-24T08:20:39;10.60;99.90
13976;DHT22;7062;49.792;9.946;2022-12-24T08:23:06;10.60;99.90
13976;DHT22;7062;49.792;9.946;2022-12-24T08:25:32;10.60;99.90
13976;DHT22;7062;49.792;9.946;2022-12-24T08:27:58;10.60;99.90
13976;DHT22;7062;49.792;9.946;2022-12-24T08:30:23;10.70;99.90
13976;DHT22;7062;49.792;9.946;2022-12-24T08:32:49;10.70;99.90
13976;DHT22;7062;49.792;9.946;2022-12-24T08:35:15;10.70;99.90
13976;DHT22;7062;49.792;9.946;2022-12-24T08:37:41;10.80;99.90
13976;DHT22;7062;49.792;9.946;2022-12-24T08:40:07;10.80;99.90
13976;DHT22;7062;49.792;9.946;2022-12-24T08:42:33;10.70;99.90
13976;DHT22;7062;49.792;9.946;2022-12-24T08:44:59;10.80;99.90
13976;DHT22;7062;49.792;9.946;2022-12-24T08:47:24;10.90;99.90
13976;DHT22;7062;49.792;9.946;2022-12-24T08:49:51;10.80;99.90
13976;DHT22;7062;49.792;9.946;2022-12-24T08:52:16;10.80;99.90
13976;DHT22;7062;49.792;9.946;2022-12-24T08:54:42;10.90;99.90
13976;DHT22;7062;49.792;9.946;2022-12-24T08:57:07;10.90;99.90
13976;DHT22;7062;49.792;9.946;2022-12-24T08:59:33;10.90;99.90
13976;DHT22;7062;49.792;9.946;2022-12-24T09:01:58;11.00;99.90
13976;DHT22;7062;49.792;9.946;2022-12-24T09:04:24;11.10;99.90
13976;DHT22;7062;49.792;9.946;2022-12-24T09:06:50;11.10;99.90
13976;DHT22;7062;49.792;9.946;2022-12-24T09:09:16;11.30;99.90
13976;DHT22;7062;49.792;9.946;2022-12-24T09:11:42;11.40;99.90
13976;DHT22;7062;49.792;9.946;2022-12-24T09:14:07;11.50;99.90
13976;DHT22;7062;49.792;9.946;2022-12-24T09:16:33;11.60;99.90
13976;DHT22;7062;49.792;9.946;2022-12-24T09:18:58;11.50;99.90
13976;DHT22;7062;49.792;9.946;2022-12-24T09:21:24;11.50;99.90
13976;DHT22;7062;49.792;9.946;2022-12-24T09:23:50;11.60;99.90
13976;DHT22;7062;49.792;9.946;2022-12-24T09:26:21;11.50;99.90
13976;DHT22;7062;49.792;9.946;2022-12-24T09:28:48;11.40;99.90
13976;DHT22;7062;49.792;9.946;2022-12-24T09:31:15;11.40;99.90
13976;DHT22;7062;49.792;9.946;2022-12-24T09:33:43;11.40;99.90
13976;DHT22;7062;49.792;9.946;2022-12-24T09:36:09;11.30;99.90
13976;DHT22;7062;49.792;9.946;2022-12-24T09:38:36;11.40;99.90
13976;DHT22;7062;49.792;9.946;2022-12-24T09:41:54;11.40;99.90
13976;DHT22;7062;49.792;9.946;2022-12-24T09:44:35;11.60;99.90
13976;DHT22;7062;49.792;9.946;2022-12-24T09:46:53;11.60;99.90
13976;DHT22;7062;49.792;9.946;2022-12-24T09:49:22;11.70;99.90
13976;DHT22;7062;49.792;9.946;2022-12-24T09:51:55;11.70;99.90
13976;DHT22;7062;49.792;9.946;2022-12-24T09:54:34;12.00;99.90
13976;DHT22;7062;49.792;9.946;2022-12-24T09:57:05;12.00;99.90
13976;DHT22;7062;49.792;9.946;2022-12-24T09:59:42;12.00;99.90
13976;DHT22;7062;49.792;9.946;2022-12-24T10:02:13;12.00;99.90
13976;DHT22;7062;49.792;9.946;2022-12-24T10:04:39;12.10;99.90
13976;DHT22;7062;49.792;9.946;2022-12-24T10:07:47;12.30;99.90
13976;DHT22;7062;49.792;9.946;2022-12-24T10:12:36;12.30;99.90
13976;DHT22;7062;49.792;9.946;2022-12-24T10:15:15;12.40;99.90
13976;DHT22;7062;49.792;9.946;2022-12-24T10:20:32;12.20;99.90
13976;DHT22;7062;49.792;9.946;2022-12-24T10:25:48;12.30;99.90
13976;DHT22;7062;49.792;9.946;2022-12-24T10:28:45;12.50;99.90
13976;DHT22;7062;49.792;9.946;2022-12-24T10:31:11;12.50;99.90
13976;DHT22;7062;49.792;9.946;2022-12-24T10:33:44;12.30;99.90
13976;DHT22;7062;49.792;9.946;2022-12-24T10:36:27;12.20;99.90
13976;DHT22;7062;49.792;9.946;2022-12-24T10:38:53;12.50;99.90
13976;DHT22;7062;49.792;9.946;2022-12-24T10:41:19;12.70;99.90
13976;DHT22;7062;49.792;9.946;2022-12-24T10:43:45;12.60;99.90
13976;DHT22;7062;49.792;9.946;2022-12-24T10:46:23;12.60;99.90
13976;DHT22;7062;49.792;9.946;2022-12-24T10:48:55;12.30;99.90
13976;DHT22;7062;49.792;9.946;2022-12-24T10:53:59;11.90;99.90
13976;DHT22;7062;49.792;9.946;2022-12-24T10:56:26;11.80;99.90
13976;DHT22;7062;49.792;9.946;2022-12-24T10:58:53;11.90;99.90
13976;DHT22;7062;49.792;9.946;2022-12-24T11:01:20;12.10;99.90
13976;DHT22;7062;49.792;9.946;2022-12-24T11:04:06;12.20;99.90
13976;DHT22;7062;49.792;9.946;2022-12-24T11:06:31;12.20;99.90
13976;DHT22;7062;49.792;9.946;2022-12-24T11:09:19;12.20;99.90
13976;DHT22;7062;49.792;9.946;2022-12-24T11:11:45;12.20;99.90
13976;DHT22;7062;49.792;9.946;2022-12-24T11:14:16;12.10;99.90
13976;DHT22;7062;49.792;9.946;2022-12-24T11:16:52;12.00;99.90
13976;DHT22;7062;49.792;9.946;2022-12-24T11:19:32;12.10;99.90
13976;DHT22;7062;49.792;9.946;2022-12-24T11:22:23;12.10;99.90
13976;DHT22;7062;49.792;9.946;2022-12-24T11:25:17;12.00;99.90
13976;DHT22;7062;49.792;9.946;2022-12-24T11:27:48;12.00;99.90
13976;DHT22;7062;49.792;9.946;2022-12-24T11:33:09;11.90;99.90
13976;DHT22;7062;49.792;9.946;2022-12-24T11:35:40;11.90;99.90
13976;DHT22;7062;49.792;9.946;2022-12-24T11:38:14;11.90;99.90
13976;DHT22;7062;49.792;9.946;2022-12-24T11:41:20;11.90;99.90
13976;DHT22;7062;49.792;9.946;2022-12-24T11:43:49;11.90;99.90
13976;DHT22;7062;49.792;9.946;2022-12-24T11:46:36;12.00;99.90
13976;DHT22;7062;49.792;9.946;2022-12-24T11:51:38;12.40;99.90
13976;DHT22;7062;49.792;9.946;2022-12-24T11:54:26;12.60;99.90
13976;DHT22;7062;49.792;9.946;2022-12-24T11:56:55;12.80;99.90
13976;DHT22;7062;49.792;9.946;2022-12-24T11:59:37;12.80;99.90
13976;DHT22;7062;49.792;9.946;2022-12-24T12:03:05;12.80;99.90
13976;DHT22;7062;49.792;9.946;2022-12-24T12:05:30;12.80;99.90
13976;DHT22;7062;49.792;9.946;2022-12-24T12:08:29;12.80;99.90
13976;DHT22;7062;49.792;9.946;2022-12-24T12:10:57;12.80;99.90
13976;DHT22;7062;49.792;9.946;2022-12-24T12:13:30;12.80;99.90
13976;DHT22;7062;49.792;9.946;2022-12-24T12:16:16;12.80;99.90
13976;DHT22;7062;49.792;9.946;2022-12-24T12:19:07;12.80;99.90
13976;DHT22;7062;49.792;9.946;2022-12-24T12:21:38;12.80;99.90
13976;DHT22;7062;49.792;9.946;2022-12-24T12:24:14;12.80;99.90
13976;DHT22;7062;49.792;9.946;2022-12-24T12:26:43;12.80;99.90
13976;DHT22;7062;49.792;9.946;2022-12-24T12:31:41;12.80;99.90
13976;DHT22;7062;49.792;9.946;2022-12-24T12:34:28;12.90;99.90
13976;DHT22;7062;49.792;9.946;2022-12-24T12:36:59;13.00;99.90
13976;DHT22;7062;49.792;9.946;2022-12-24T12:39:26;13.20;99.90
13976;DHT22;7062;49.792;9.946;2022-12-24T12:42:15;13.40;99.90
13976;DHT22;7062;49.792;9.946;2022-12-24T12:47:57;13.70;99.90
13976;DHT22;7062;49.792;9.946;2022-12-24T12:53:34;13.20;99.90
13976;DHT22;7062;49.792;9.946;2022-12-24T12:59:09;13.20;99.90
13976;DHT22;7062;49.792;9.946;2022-12-24T13:21:19;13.00;99.90
13976;DHT22;7062;49.792;9.946;2022-12-24T13:23:45;12.90;99.90
13976;DHT22;7062;49.792;9.946;2022-12-24T13:26:12;12.90;99.90
13976;DHT22;7062;49.792;9.946;2022-12-24T13:28:39;12.80;99.90
13976;DHT22;7062;49.792;9.946;2022-12-24T13:36:14;12.50;99.90
13976;DHT22;7062;49.792;9.946;2022-12-24T13:38:56;12.40;99.90
13976;DHT22;7062;49.792;9.946;2022-12-24T13:46:57;12.10;99.90
13976;DHT22;7062;49.792;9.946;2022-12-24T13:54:38;11.60;99.90
13976;DHT22;7062;49.792;9.946;2022-12-24T14:02:37;11.50;99.90
13976;DHT22;7062;49.792;9.946;2022-12-24T14:05:07;11.60;99.90
13976;DHT22;7062;49.792;9.946;2022-12-24T14:07:34;11.60;99.90
13976;DHT22;7062;49.792;9.946;2022-12-24T14:10:01;11.70;99.90
13976;DHT22;7062;49.792;9.946;2022-12-24T14:12:46;11.70;99.90
13976;DHT22;7062;49.792;9.946;2022-12-24T14:18:20;11.70;99.90
13976;DHT22;7062;49.792;9.946;2022-12-24T14:20:57;12.00;99.90
13976;DHT22;7062;49.792;9.946;2022-12-24T14:26:17;12.10;99.90
13976;DHT22;7062;49.792;9.946;2022-12-24T14:29:13;12.00;99.90
13976;DHT22;7062;49.792;9.946;2022-12-24T14:31:50;11.90;99.90
13976;DHT22;7062;49.792;9.946;2022-12-24T14:34:16;12.00;99.90
13976;DHT22;7062;49.792;9.946;2022-12-24T14:36:43;11.90;99.90
13976;DHT22;7062;49.792;9.946;2022-12-24T14:42:19;11.80;99.90
13976;DHT22;7062;49.792;9.946;2022-12-24T14:56:30;11.20;99.90
13976;DHT22;7062;49.792;9.946;2022-12-24T14:58:56;11.20;99.90
13976;DHT22;7062;49.792;9.946;2022-12-24T15:01:30;11.20;99.90
13976;DHT22;7062;49.792;9.946;2022-12-24T15:06:38;11.10;99.90
13976;DHT22;7062;49.792;9.946;2022-12-24T15:09:09;11.10;99.90
13976;DHT22;7062;49.792;9.946;2022-12-24T15:11:36;11.00;99.90
13976;DHT22;7062;49.792;9.946;2022-12-24T15:14:02;10.90;99.90
13976;DHT22;7062;49.792;9.946;2022-12-24T15:16:33;10.90;99.90
13976;DHT22;7062;49.792;9.946;2022-12-24T15:19:04;10.80;99.90
13976;DHT22;7062;49.792;9.946;2022-12-24T15:21:36;10.80;99.90
13976;DHT22;7062;49.792;9.946;2022-12-24T15:24:23;10.70;99.90
13976;DHT22;7062;49.792;9.946;2022-12-24T15:26:48;10.70;99.90
13976;DHT22;7062;49.792;9.946;2022-12-24T15:29:24;10.70;99.90
13976;DHT22;7062;49.792;9.946;2022-12-24T15:31:59;10.60;99.90
13976;DHT22;7062;49.792;9.946;2022-12-24T15:34:29;10.60;99.90
13976;DHT22;7062;49.792;9.946;2022-12-24T15:37:17;10.60;99.90
13976;DHT22;7062;49.792;9.946;2022-12-24T15:39:44;10.50;99.90
13976;DHT22;7062;49.792;9.946;2022-12-24T15:42:18;10.50;99.90
13976;DHT22;7062;49.792;9.946;2022-12-24T15:45:11;10.40;99.90
13976;DHT22;7062;49.792;9.946;2022-12-24T15:47:44;10.40;99.90
13976;DHT22;7062;49.792;9.946;2022-12-24T15:52:41;10.40;99.90
13976;DHT22;7062;49.792;9.946;2022-12-24T15:55:28;10.40;99.90
13976;DHT22;7062;49.792;9.946;2022-12-24T15:57:55;10.40;99.90
13976;DHT22;7062;49.792;9.946;2022-12-24T16:00:26;10.40;99.90
13976;DHT22;7062;49.792;9.946;2022-12-24T16:03:09;10.30;99.90
13976;DHT22;7062;49.792;9.946;2022-12-24T16:05:37;10.30;99.90
13976;DHT22;7062;49.792;9.946;2022-12-24T16:10:41;10.30;99.90
13976;DHT22;7062;49.792;9.946;2022-12-24T16:13:30;10.40;99.90
13976;DHT22;7062;49.792;9.946;2022-12-24T16:16:13;10.30;99.90
13976;DHT22;7062;49.792;9.946;2022-12-24T16:18:49;10.50;99.90
13976;DHT22;7062;49.792;9.946;2022-12-24T16:21:39;10.40;99.90
13976;DHT22;7062;49.792;9.946;2022-12-24T16:24:23;10.40;99.90
13976;DHT22;7062;49.792;9.946;2022-12-24T16:26:50;10.40;99.90
13976;DHT22;7062;49.792;9.946;2022-12-24T16:29:16;10.20;99.90
13976;DHT22;7062;49.792;9.946;2022-12-24T16:31:50;10.20;99.90
13976;DHT22;7062;49.792;9.946;2022-12-24T16:34:17;10.20;99.90
13976;DHT22;7062;49.792;9.946;2022-12-24T16:36:44;10.30;99.90
13976;DHT22;7062;49.792;9.946;2022-12-24T16:39:32;10.30;99.90
13976;DHT22;7062;49.792;9.946;2022-12-24T16:42:00;10.20;99.90
13976;DHT22;7062;49.792;9.946;2022-12-24T16:44:45;10.30;99.90
13976;DHT22;7062;49.792;9.946;2022-12-24T16:47:23;10.40;99.90
13976;DHT22;7062;49.792;9.946;2022-12-24T16:49:50;10.40;99.90
13976;DHT22;7062;49.792;9.946;2022-12-24T16:52:18;10.40;99.90
13976;DHT22;7062;49.792;9.946;2022-12-24T16:54:46;10.30;99.90
13976;DHT22;7062;49.792;9.946;2022-12-24T16:57:12;10.30;99.90
13976;DHT22;7062;49.792;9.946;2022-12-24T16:59:38;10.30;99.90
13976;DHT22;7062;49.792;9.946;2022-12-24T17:02:04;10.20;99.90
13976;DHT22;7062;49.792;9.946;2022-12-24T17:04:33;10.60;99.90
13976;DHT22;7062;49.792;9.946;2022-12-24T17:06:59;10.00;99.90
13976;DHT22;7062;49.792;9.946;2022-12-24T17:09:24;9.90;99.90
13976;DHT22;7062;49.792;9.946;2022-12-24T17:11:50;9.80;99.90
13976;DHT22;7062;49.792;9.946;2022-12-24T17:14:16;9.80;99.90
13976;DHT22;7062;49.792;9.946;2022-12-24T17:16:41;9.80;99.90
13976;DHT22;7062;49.792;9.946;2022-12-24T17:19:07;9.80;99.90
13976;DHT22;7062;49.792;9.946;2022-12-24T17:21:33;9.90;99.90
13976;DHT22;7062;49.792;9.946;2022-12-24T17:23:59;9.90;99.90
13976;DHT22;7062;49.792;9.946;2022-12-24T17:26:25;10.00;99.90
13976;DHT22;7062;49.792;9.946;2022-12-24T17:28:55;9.90;99.90
13976;DHT22;7062;49.792;9.946;2022-12-24T17:31:21;9.90;99.90
13976;DHT22;7062;49.792;9.946;2022-12-24T17:33:48;9.90;99.90
13976;DHT22;7062;49.792;9.946;2022-12-24T17:36:14;9.90;99.90
13976;DHT22;7062;49.792;9.946;2022-12-24T17:38:40;9.80;99.90
13976;DHT22;7062;49.792;9.946;2022-12-24T17:41:08;9.80;99.90
13976;DHT22;7062;49.792;9.946;2022-12-24T17:43:34;9.70;99.90
13976;DHT22;7062;49.792;9.946;2022-12-24T17:46:11;9.70;99.90
13976;DHT22;7062;49.792;9.946;2022-12-24T17:48:37;9.80;99.90
13976;DHT22;7062;49.792;9.946;2022-12-24T17:51:08;9.90;99.90
13976;DHT22;7062;49.792;9.946;2022-12-24T17:53:35;9.90;99.90
13976;DHT22;7062;49.792;9.946;2022-12-24T17:56:01;9.90;99.90
13976;DHT22;7062;49.792;9.946;2022-12-24T17:58:28;9.90;99.90
13976;DHT22;7062;49.792;9.946;2022-12-24T18:00:54;9.90;99.90
13976;DHT22;7062;49.792;9.946;2022-12-24T18:03:20;9.90;99.90
13976;DHT22;7062;49.792;9.946;2022-12-24T18:05:46;9.90;99.90
13976;DHT22;7062;49.792;9.946;2022-12-24T18:08:12;9.90;99.90
13976;DHT22;7062;49.792;9.946;2022-12-24T18:10:37;9.90;99.90